Terminal Aerodrome Forecast
Issued by NWS Charleston, WV

Current Version | Previous Version | Graphics & Text | Print | Product List | Glossary On
Versions: 1 2 3 4 5 6 7 8 9 10 11 12 13 14 15 16 17 18 19 20 21 22 23 24 25 26 27
000
FTUS41 KRLX 290800 AAA
TAFCRW
TAF AMD
KCRW 290836Z 2909/3006 24005KT 6SM -SHRA BR SCT010 OVC035
      TEMPO 2909/2911 4SM -SHRA BKN025
     FM291200 VRB03KT P6SM BKN035
     FM291400 26008KT P6SM SCT040 BKN120
     FM300200 30004KT P6SM BKN040=

USA.gov is the U.S. government's official web portal to all federal, state and local government web resources and services.